Time;durP1;ratioP1;P1;durP2;ratioP2;P2;SDS_P1;SDS_P2;PMS_P1;PMS_P2;Temp;Humidity;BMP_temperature;BMP_pressure;BME280_temperature;BME280_humidity;BME280_pressure;Samples;Min_cycle;Max_cycle;Signal;HPM_P1;HPM_P2
2023/05/20 00:01:06;;;;;;;;;;;;;;;17.57;74.25;100859.25;5371065;32;34697;-68
2023/05/20 00:04:08;;;;;;;;;;;;;;;17.85;73.20;100850.50;5366560;32;34998;-70
2023/05/20 00:07:10;;;;;;;;;;;;;;;17.47;75.10;100841.31;5351254;32;35204;-69
2023/05/20 00:10:12;;;;;;;;;;;;;;;18.21;71.77;100840.28;5372949;32;36210;-70
2023/05/20 00:13:14;;;;;;;;;;;;;;;18.16;71.90;100837.91;5362559;32;34669;-68
2023/05/20 00:16:16;;;;;;;;;;;;;;;17.91;73.07;100849.25;5360191;32;45286;-68
2023/05/20 00:19:18;;;;;;;;;;;;;;;17.60;74.86;100840.47;5356093;32;35047;-69
2023/05/20 00:22:20;;;;;;;;;;;;;;;17.93;72.16;100834.06;5358756;32;36637;-69
2023/05/20 00:25:24;;;;;;;;;;;;;;;17.93;73.32;100818.09;5348131;32;34330;-67
2023/05/20 00:28:26;;;;;;;;;;;;;;;18.01;71.26;100814.94;5356059;32;36103;-68
2023/05/20 00:31:28;;;;;;;;;;;;;;;17.61;73.82;100820.06;5353316;32;34466;-70
2023/05/20 00:34:30;;;;;;;;;;;;;;;17.43;75.36;100824.69;5334392;32;35023;-70
2023/05/20 00:37:32;;;;;;;;;;;;;;;17.15;76.84;100825.50;5340413;32;35240;-70
2023/05/20 00:40:34;;;;;;;;;;;;;;;17.38;75.49;100825.91;5354264;32;35426;-68
2023/05/20 00:43:36;;;;;;;;;;;;;;;18.14;72.51;100818.53;5356983;32;35213;-67
2023/05/20 00:46:38;;;;;;;;;;;;;;;17.88;73.78;100828.16;5348462;32;35126;-70
2023/05/20 00:49:40;;;;;;;;;;;;;;;17.85;72.67;100831.88;5340368;32;34534;-67
2023/05/20 00:52:44;;;;;;;;;;;;;;;18.03;72.22;100832.53;5354889;32;34389;-69
2023/05/20 00:55:46;;;;;;;;;;;;;;;17.48;75.16;100821.75;5350377;32;44964;-67
2023/05/20 00:58:48;;;;;;;;;;;;;;;16.95;78.11;100820.53;5352852;32;35025;-70
2023/05/20 01:01:50;;;;;;;;;;;;;;;17.37;76.15;100814.44;5343708;32;35400;-68
2023/05/20 01:04:55;;;;;;;;;;;;;;;16.72;78.80;100825.34;5352262;32;34851;-68
2023/05/20 01:07:57;;;;;;;;;;;;;;;16.90;77.52;100818.12;5349031;32;34594;-67
2023/05/20 01:11:03;;;;;;;;;;;;;;;17.76;73.70;100823.59;5344610;32;35138;-67
2023/05/20 01:14:06;;;;;;;;;;;;;;;16.83;77.72;100826.53;5365780;32;35398;-69
2023/05/20 01:17:11;;;;;;;;;;;;;;;16.93;77.06;100827.69;5343844;32;34777;-67
2023/05/20 01:20:13;;;;;;;;;;;;;;;17.75;73.77;100827.22;5355963;32;36480;-69
2023/05/20 01:23:16;;;;;;;;;;;;;;;18.28;71.38;100829.13;5361178;32;44751;-67
2023/05/20 01:26:18;;;;;;;;;;;;;;;18.36;70.25;100829.53;5349071;32;35117;-69
2023/05/20 01:29:21;;;;;;;;;;;;;;;18.01;71.49;100830.91;5351920;32;35024;-67
2023/05/20 01:32:39;;;;;;;;;;;;;;;18.11;71.46;100832.91;5353895;32;34838;-69
2023/05/20 01:35:41;;;;;;;;;;;;;;;17.95;71.41;100833.94;5345101;32;34375;-70
2023/05/20 01:38:43;;;;;;;;;;;;;;;18.02;71.42;100830.81;5349250;32;35103;-67
2023/05/20 01:41:45;;;;;;;;;;;;;;;18.30;70.76;100835.25;5366189;32;46131;-69
2023/05/20 01:44:47;;;;;;;;;;;;;;;18.64;68.21;100841.88;5362784;32;35346;-69
2023/05/20 01:47:49;;;;;;;;;;;;;;;17.87;72.40;100851.25;5347180;32;34719;-71
2023/05/20 01:50:51;;;;;;;;;;;;;;;17.97;71.64;100851.53;5368398;32;37333;-69
2023/05/20 01:53:53;;;;;;;;;;;;;;;18.63;68.84;100853.50;5361962;32;36358;-70
2023/05/20 01:56:55;;;;;;;;;;;;;;;17.92;71.37;100842.97;5373164;32;35670;-67
2023/05/20 01:59:57;;;;;;;;;;;;;;;18.65;68.77;100846.25;5362028;32;35437;-70
2023/05/20 02:02:59;;;;;;;;;;;;;;;18.70;68.06;100847.81;5370205;32;35543;-68
2023/05/20 02:06:01;;;;;;;;;;;;;;;18.63;68.33;100848.16;5364431;32;34804;-69
2023/05/20 02:09:06;;;;;;;;;;;;;;;18.52;68.37;100852.47;5361646;32;35358;-69
2023/05/20 02:12:08;;;;;;;;;;;;;;;17.57;72.43;100848.62;5371753;32;34710;-67
2023/05/20 02:15:10;;;;;;;;;;;;;;;18.07;71.12;100841.16;5362325;32;35074;-67
2023/05/20 02:18:12;;;;;;;;;;;;;;;17.36;73.87;100855.25;5361681;32;35440;-67
2023/05/20 02:21:15;;;;;;;;;;;;;;;17.99;71.36;100852.28;5358969;32;35604;-70
2023/05/20 02:24:17;;;;;;;;;;;;;;;17.88;71.35;100846.78;5374933;32;45308;-68
2023/05/20 02:27:19;;;;;;;;;;;;;;;17.73;72.20;100848.59;5363327;32;34920;-68
2023/05/20 02:30:21;;;;;;;;;;;;;;;18.14;70.90;100847.78;5362032;32;34335;-69
2023/05/20 02:33:22;;;;;;;;;;;;;;;18.01;71.29;100852.19;5369448;32;34458;-69
2023/05/20 02:36:26;;;;;;;;;;;;;;;17.69;72.80;100855.00;5339933;32;34882;-67
2023/05/20 02:39:28;;;;;;;;;;;;;;;18.30;69.12;100845.88;5369673;32;35503;-68
2023/05/20 02:42:30;;;;;;;;;;;;;;;17.93;71.65;100851.81;5363252;32;34874;-68
2023/05/20 02:45:32;;;;;;;;;;;;;;;18.00;70.76;100853.13;5368020;32;34851;-68
2023/05/20 02:48:34;;;;;;;;;;;;;;;18.28;69.81;100855.75;5344447;32;35013;-68
2023/05/20 02:51:36;;;;;;;;;;;;;;;18.91;66.69;100854.34;5360946;32;34665;-67
2023/05/20 02:54:38;;;;;;;;;;;;;;;18.33;67.63;100858.97;5372125;32;35113;-69
2023/05/20 02:57:40;;;;;;;;;;;;;;;17.84;70.67;100843.47;5362139;32;35525;-68
2023/05/20 03:00:42;;;;;;;;;;;;;;;17.61;71.20;100851.97;5357026;32;35637;-69
2023/05/20 03:03:44;;;;;;;;;;;;;;;17.45;72.71;100860.03;5365793;32;35497;-68
2023/05/20 03:06:46;;;;;;;;;;;;;;;17.17;73.45;100855.47;5358299;32;48176;-69
2023/05/20 03:09:48;;;;;;;;;;;;;;;17.00;75.04;100855.59;5355411;32;35049;-67
2023/05/20 03:12:50;;;;;;;;;;;;;;;17.18;74.19;100862.50;5344125;32;34975;-68
2023/05/20 03:15:52;;;;;;;;;;;;;;;17.03;74.98;100866.06;5353880;32;34737;-67
2023/05/20 03:18:54;;;;;;;;;;;;;;;17.26;74.14;100859.38;5353551;32;35220;-69
2023/05/20 03:21:56;;;;;;;;;;;;;;;17.00;74.26;100868.88;5353838;32;35105;-69
2023/05/20 03:24:59;;;;;;;;;;;;;;;17.22;74.41;100863.19;5347316;32;35005;-69
2023/05/20 03:28:01;;;;;;;;;;;;;;;17.16;74.18;100869.72;5350100;32;34726;-69
2023/05/20 03:31:03;;;;;;;;;;;;;;;17.65;72.17;100872.09;5346280;32;35753;-68
2023/05/20 03:34:06;;;;;;;;;;;;;;;17.35;73.48;100873.94;5341933;32;34206;-68
2023/05/20 03:37:08;;;;;;;;;;;;;;;17.67;72.20;100872.00;5330719;32;35507;-67
2023/05/20 03:40:10;;;;;;;;;;;;;;;17.75;70.80;100873.25;5351822;32;35028;-70
2023/05/20 03:43:12;;;;;;;;;;;;;;;17.95;70.69;100880.00;5362988;32;34643;-70
2023/05/20 03:46:14;;;;;;;;;;;;;;;17.64;70.98;100873.03;5342339;32;35017;-70
2023/05/20 03:49:16;;;;;;;;;;;;;;;16.92;74.62;100887.06;5326434;32;44716;-70
2023/05/20 03:52:18;;;;;;;;;;;;;;;17.00;74.90;100885.69;5347685;32;35076;-70
2023/05/20 03:55:20;;;;;;;;;;;;;;;16.86;74.76;100885.59;5342366;32;34627;-67
2023/05/20 03:58:22;;;;;;;;;;;;;;;17.03;75.46;100890.81;5355675;32;35376;-68
2023/05/20 04:01:24;;;;;;;;;;;;;;;16.79;75.17;100886.91;5341544;32;35421;-70
2023/05/20 04:04:26;;;;;;;;;;;;;;;17.96;71.37;100883.53;5355086;32;35461;-68
2023/05/20 04:07:28;;;;;;;;;;;;;;;17.52;72.92;100887.06;5346227;32;35668;-68
2023/05/20 04:10:32;;;;;;;;;;;;;;;17.09;74.48;100904.69;5353052;32;34435;-70
2023/05/20 04:13:34;;;;;;;;;;;;;;;17.42;72.36;100897.38;5353934;32;34717;-70
2023/05/20 04:16:36;;;;;;;;;;;;;;;17.81;71.59;100896.81;5344850;32;35229;-69
2023/05/20 04:19:39;;;;;;;;;;;;;;;17.75;71.58;100905.16;5355768;32;35195;-69
2023/05/20 04:22:41;;;;;;;;;;;;;;;18.21;68.61;100904.97;5346066;32;34798;-67
2023/05/20 04:25:43;;;;;;;;;;;;;;;18.21;67.94;100912.09;5355369;32;35128;-68
2023/05/20 04:28:48;;;;;;;;;;;;;;;16.95;73.38;100921.41;5361146;32;44695;-69
2023/05/20 04:31:50;;;;;;;;;;;;;;;17.39;71.57;100916.19;5347580;32;35230;-67
2023/05/20 04:34:54;;;;;;;;;;;;;;;17.87;70.26;100908.88;5349864;32;34730;-67
2023/05/20 04:37:56;;;;;;;;;;;;;;;18.40;67.59;100908.19;5332864;32;36760;-68
2023/05/20 04:40:59;;;;;;;;;;;;;;;17.57;71.42;100916.88;5354554;32;34971;-68
2023/05/20 04:44:01;;;;;;;;;;;;;;;18.18;68.60;100913.16;5355797;32;35339;-67
2023/05/20 04:47:03;;;;;;;;;;;;;;;18.26;67.72;100910.88;5350386;32;34784;-69
2023/05/20 04:50:07;;;;;;;;;;;;;;;18.49;67.04;100909.44;5350503;32;34885;-67
2023/05/20 04:53:09;;;;;;;;;;;;;;;19.65;62.08;100908.91;5357311;32;34966;-69
2023/05/20 04:56:12;;;;;;;;;;;;;;;19.06;63.02;100903.94;5353969;32;35493;-70
2023/05/20 04:59:16;;;;;;;;;;;;;;;18.66;65.05;100917.19;5354297;32;35469;-68
2023/05/20 05:02:18;;;;;;;;;;;;;;;20.17;61.14;100908.81;5354800;32;45011;-68
2023/05/20 05:05:20;;;;;;;;;;;;;;;21.12;57.22;100915.22;5344281;32;35353;-70
2023/05/20 05:08:25;;;;;;;;;;;;;;;21.46;55.15;100913.59;5349631;32;35109;-68
2023/05/20 05:11:27;;;;;;;;;;;;;;;20.54;58.21;100914.19;5346572;32;35344;-70
2023/05/20 05:14:29;;;;;;;;;;;;;;;20.32;58.45;100908.66;5344261;32;34437;-68
2023/05/20 05:17:31;;;;;;;;;;;;;;;21.49;55.43;100894.63;5355002;32;34958;-70
2023/05/20 05:20:33;;;;;;;;;;;;;;;21.88;52.72;100892.50;5343768;32;36194;-69
2023/05/20 05:23:37;;;;;;;;;;;;;;;21.92;52.93;100893.12;5368063;32;35165;-67
2023/05/20 05:26:39;;;;;;;;;;;;;;;23.17;48.89;100897.22;5345708;32;34861;-68
2023/05/20 05:29:41;;;;;;;;;;;;;;;23.07;49.50;100892.75;5357683;32;34744;-69
2023/05/20 05:32:45;;;;;;;;;;;;;;;21.22;54.59;100910.06;5354834;32;46954;-68
2023/05/20 05:35:48;;;;;;;;;;;;;;;23.85;47.88;100897.72;5323067;32;34376;-67
2023/05/20 05:38:49;;;;;;;;;;;;;;;23.09;49.00;100896.16;5349888;32;36142;-67
2023/05/20 05:41:52;;;;;;;;;;;;;;;23.63;48.34;100896.00;5344450;32;34886;-68
2023/05/20 05:44:54;;;;;;;;;;;;;;;23.88;47.23;100899.28;5353764;32;34916;-70
2023/05/20 05:47:56;;;;;;;;;;;;;;;23.16;48.94;100900.88;5337664;32;35411;-69
2023/05/20 05:50:58;;;;;;;;;;;;;;;24.01;46.43;100899.91;5347381;32;34823;-69
2023/05/20 05:54:00;;;;;;;;;;;;;;;25.25;43.68;100904.94;5348154;32;36545;-70
2023/05/20 05:57:02;;;;;;;;;;;;;;;23.60;47.27;100901.63;5343901;32;34128;-69
2023/05/20 06:00:07;;;;;;;;;;;;;;;26.51;40.64;100897.34;5354242;32;34819;-70
2023/05/20 06:03:09;;;;;;;;;;;;;;;27.00;39.29;100901.44;5354296;32;35114;-68
2023/05/20 06:06:11;;;;;;;;;;;;;;;25.43;42.81;100911.25;5360832;32;34738;-68
2023/05/20 06:09:13;;;;;;;;;;;;;;;25.64;42.10;100897.66;5353068;32;35941;-69
2023/05/20 06:12:15;;;;;;;;;;;;;;;25.55;42.86;100893.97;5364530;32;44744;-68
2023/05/20 06:15:17;;;;;;;;;;;;;;;24.13;43.57;100896.12;5366295;32;34782;-69
2023/05/20 06:18:19;;;;;;;;;;;;;;;25.07;41.29;100894.87;5360393;32;34216;-68
2023/05/20 06:21:21;;;;;;;;;;;;;;;25.01;39.63;100898.09;5368872;32;34672;-68
2023/05/20 06:24:23;;;;;;;;;;;;;;;25.72;39.58;100892.38;5367370;32;34459;-70
2023/05/20 06:27:26;;;;;;;;;;;;;;;26.08;37.77;100890.75;5371651;32;35394;-68
2023/05/20 06:30:28;;;;;;;;;;;;;;;26.16;38.31;100892.69;5362899;32;34837;-69
2023/05/20 06:33:30;;;;;;;;;;;;;;;26.04;37.12;100893.88;5365085;32;35661;-70
2023/05/20 06:36:32;;;;;;;;;;;;;;;26.01;36.75;100888.78;5348830;32;34999;-70
2023/05/20 06:39:37;;;;;;;;;;;;;;;25.88;37.31;100889.94;5358988;32;35717;-68
2023/05/20 06:42:39;;;;;;;;;;;;;;;26.89;35.30;100888.16;5357607;32;34853;-68
2023/05/20 06:45:41;;;;;;;;;;;;;;;28.25;34.85;100879.56;5361791;32;34754;-71
2023/05/20 06:48:43;;;;;;;;;;;;;;;27.03;35.83;100889.47;5347559;32;35252;-68
2023/05/20 06:51:47;;;;;;;;;;;;;;;26.57;36.78;100885.13;5355054;32;45741;-70
2023/05/20 06:54:49;;;;;;;;;;;;;;;26.94;35.99;100882.31;5362073;32;35056;-68
2023/05/20 06:57:51;;;;;;;;;;;;;;;27.19;34.48;100881.56;5362367;32;34664;-68
2023/05/20 07:00:53;;;;;;;;;;;;;;;27.81;33.88;100884.22;5348982;32;35434;-69
2023/05/20 07:03:55;;;;;;;;;;;;;;;28.34;32.29;100888.59;5353116;32;35060;-70
2023/05/20 07:06:57;;;;;;;;;;;;;;;27.94;33.01;100879.25;5345278;32;35054;-70
2023/05/20 07:09:59;;;;;;;;;;;;;;;29.38;31.30;100877.28;5352452;32;34536;-69
2023/05/20 07:13:02;;;;;;;;;;;;;;;28.63;32.43;100876.50;5359900;32;33713;-70
2023/05/20 07:16:04;;;;;;;;;;;;;;;28.03;33.05;100885.56;5363304;32;35381;-68
2023/05/20 07:19:08;;;;;;;;;;;;;;;27.50;33.80;100868.50;5368970;32;35027;-71
2023/05/20 07:22:11;;;;;;;;;;;;;;;29.08;31.52;100859.88;5364834;32;35228;-71
2023/05/20 07:25:13;;;;;;;;;;;;;;;27.78;33.95;100855.69;5374214;32;36712;-71
2023/05/20 07:28:16;;;;;;;;;;;;;;;28.47;32.27;100861.09;5360854;32;34498;-70
2023/05/20 07:31:18;;;;;;;;;;;;;;;27.15;35.04;100855.91;5364877;32;44717;-70
2023/05/20 07:34:21;;;;;;;;;;;;;;;27.37;34.89;100851.88;5340609;32;35464;-71
2023/05/20 07:37:23;;;;;;;;;;;;;;;27.39;33.73;100859.81;5329803;32;35302;-70
2023/05/20 07:40:26;;;;;;;;;;;;;;;28.84;32.34;100852.53;5351863;32;35298;-70
2023/05/20 07:43:28;;;;;;;;;;;;;;;28.19;33.05;100857.75;5346134;32;34982;-68
2023/05/20 07:46:30;;;;;;;;;;;;;;;29.30;31.82;100863.75;5355390;32;34932;-69
2023/05/20 07:49:34;;;;;;;;;;;;;;;29.02;32.02;100864.09;5342739;32;35617;-70
2023/05/20 07:52:36;;;;;;;;;;;;;;;30.04;30.77;100850.94;5357940;32;34782;-68
2023/05/20 07:55:56;;;;;;;;;;;;;;;29.55;31.32;100853.75;5346168;32;36027;-71
2023/05/20 07:59:02;;;;;;;;;;;;;;;29.49;31.16;100857.97;5343662;32;34822;-69
2023/05/20 08:02:04;;;;;;;;;;;;;;;28.92;32.30;100857.13;5355016;32;35368;-70
2023/05/20 08:05:06;;;;;;;;;;;;;;;26.98;35.92;100841.41;5346295;32;34696;-70
2023/05/20 08:08:09;;;;;;;;;;;;;;;27.90;34.05;100847.31;5353759;32;35430;-70
2023/05/20 08:11:11;;;;;;;;;;;;;;;27.84;34.15;100848.81;5355781;32;34478;-70
2023/05/20 08:14:15;;;;;;;;;;;;;;;28.60;33.14;100850.66;5347898;32;35564;-71
2023/05/20 08:17:18;;;;;;;;;;;;;;;29.44;32.24;100838.72;5350103;32;45045;-70
2023/05/20 08:20:20;;;;;;;;;;;;;;;27.78;34.06;100844.91;5343581;32;35141;-69
2023/05/20 08:23:21;;;;;;;;;;;;;;;30.48;30.12;100845.84;5355919;32;35452;-68
2023/05/20 08:26:23;;;;;;;;;;;;;;;29.87;30.70;100840.13;5344537;32;34851;-68
2023/05/20 08:29:25;;;;;;;;;;;;;;;29.86;31.41;100832.19;5353453;32;35438;-68
2023/05/20 08:32:27;;;;;;;;;;;;;;;30.46;30.32;100831.59;5346345;32;35708;-69
2023/05/20 08:35:29;;;;;;;;;;;;;;;31.52;28.45;100812.63;5332691;32;34575;-71
2023/05/20 08:38:31;;;;;;;;;;;;;;;30.59;29.89;100823.75;5342887;32;35217;-69
2023/05/20 08:41:33;;;;;;;;;;;;;;;28.94;31.91;100825.38;5344095;32;34926;-68
2023/05/20 08:44:35;;;;;;;;;;;;;;;30.08;31.29;100815.19;5353755;32;34877;-68
2023/05/20 08:47:38;;;;;;;;;;;;;;;29.96;30.51;100816.59;5340425;32;35425;-69
2023/05/20 08:50:40;;;;;;;;;;;;;;;30.16;30.73;100815.16;5361966;32;34940;-69
2023/05/20 08:53:41;;;;;;;;;;;;;;;32.23;27.46;100803.97;5361771;32;34772;-68
2023/05/20 08:56:43;;;;;;;;;;;;;;;31.71;28.32;100813.94;5372133;32;35410;-70
2023/05/20 08:59:45;;;;;;;;;;;;;;;30.36;30.08;100809.28;5362916;32;44454;-68
2023/05/20 09:02:50;;;;;;;;;;;;;;;30.75;30.10;100809.22;5361780;32;35504;-70
2023/05/20 09:05:52;;;;;;;;;;;;;;;31.81;28.40;100806.37;5374942;32;34631;-70
2023/05/20 09:08:54;;;;;;;;;;;;;;;30.01;31.45;100805.19;5367691;32;35321;-70
2023/05/20 09:11:56;;;;;;;;;;;;;;;30.50;30.65;100791.41;5372427;32;35027;-70
2023/05/20 09:14:58;;;;;;;;;;;;;;;32.85;26.89;100790.66;5367754;32;34750;-69
2023/05/20 09:18:06;;;;;;;;;;;;;;;34.02;24.67;100792.75;5365567;32;35179;-68
2023/05/20 09:21:11;;;;;;;;;;;;;;;31.89;27.29;100794.56;5371786;32;35620;-68
2023/05/20 09:24:13;;;;;;;;;;;;;;;30.44;30.19;100801.09;5364564;32;35072;-69
2023/05/20 09:27:14;;;;;;;;;;;;;;;31.07;29.35;100783.69;5373595;32;35215;-69
2023/05/20 09:30:20;;;;;;;;;;;;;;;32.01;28.24;100793.06;5350748;32;45808;-69
2023/05/20 09:33:25;;;;;;;;;;;;;;;33.83;25.40;100783.41;5351986;32;35010;-71
2023/05/20 09:36:28;;;;;;;;;;;;;;;31.82;28.11;100782.78;5325434;32;34902;-69
2023/05/20 09:39:32;;;;;;;;;;;;;;;33.66;24.37;100769.28;5352900;32;35177;-70
2023/05/20 09:42:55;;;;;;;;;;;;;;;33.44;24.91;100769.56;5367437;32;35354;-71
2023/05/20 09:45:59;;;;;;;;;;;;;;;33.64;25.00;100767.81;5362844;32;35027;-69
2023/05/20 09:49:01;;;;;;;;;;;;;;;34.33;24.37;100754.03;5349247;32;34602;-70
2023/05/20 09:52:03;;;;;;;;;;;;;;;33.04;26.62;100745.59;5362988;32;34858;-70
2023/05/20 09:55:05;;;;;;;;;;;;;;;32.12;26.02;100748.22;5361525;32;35431;-69
2023/05/20 09:58:07;;;;;;;;;;;;;;;32.23;26.80;100742.28;5369786;32;35140;-68
2023/05/20 10:01:09;;;;;;;;;;;;;;;34.31;23.83;100738.91;5360094;32;34688;-70
2023/05/20 10:04:11;;;;;;;;;;;;;;;35.84;22.38;100734.19;5356950;32;35225;-69
2023/05/20 10:07:43;;;;;;;;;;;;;;;33.21;24.85;100724.34;5360170;32;47219;-68
2023/05/20 10:10:57;;;;;;;;;;;;;;;35.89;21.35;100724.28;5366344;32;35495;-69
2023/05/20 10:14:18;;;;;;;;;;;;;;;34.35;22.38;100732.84;5369970;32;34713;-71
2023/05/20 10:17:41;;;;;;;;;;;;;;;35.21;21.83;100718.37;5357437;32;44669;-69
2023/05/20 10:20:47;;;;;;;;;;;;;;;32.97;24.03;100716.62;5368961;32;34563;-69
2023/05/20 10:23:49;;;;;;;;;;;;;;;34.33;21.50;100715.84;5350269;32;47451;-70
2023/05/20 10:26:53;;;;;;;;;;;;;;;35.44;20.54;100707.87;5350129;32;35055;-71
2023/05/20 10:29:56;;;;;;;;;;;;;;;35.31;20.75;100707.03;5359977;32;34229;-68
2023/05/20 10:33:01;;;;;;;;;;;;;;;36.82;18.53;100701.78;5344500;32;35209;-69
2023/05/20 10:36:04;;;;;;;;;;;;;;;35.06;20.20;100706.88;5329705;32;36315;-69
2023/05/20 10:39:06;;;;;;;;;;;;;;;32.96;22.65;100693.16;5342196;32;34926;-69
2023/05/20 10:42:08;;;;;;;;;;;;;;;35.72;19.27;100695.75;5362630;32;35013;-69
2023/05/20 10:45:10;;;;;;;;;;;;;;;36.39;18.70;100694.37;5356390;32;35377;-69
2023/05/20 10:48:39;;;;;;;;;;;;;;;36.44;18.82;100683.56;5340786;32;35020;-68
2023/05/20 10:51:45;;;;;;;;;;;;;;;35.26;20.31;100683.91;5352994;32;35106;-69
2023/05/20 10:54:54;;;;;;;;;;;;;;;36.53;19.02;100681.41;5351542;32;44507;-69
2023/05/20 10:57:56;;;;;;;;;;;;;;;36.21;19.37;100680.59;5352020;32;34463;-71
2023/05/20 11:00:58;;;;;;;;;;;;;;;37.11;18.17;100673.72;5345223;32;35766;-71
2023/05/20 11:04:00;;;;;;;;;;;;;;;34.42;20.76;100668.25;5346384;32;35596;-69
2023/05/20 11:07:03;;;;;;;;;;;;;;;35.51;19.27;100672.31;5362084;32;37480;-70
2023/05/20 11:10:07;;;;;;;;;;;;;;;36.23;18.63;100664.78;5345610;32;36541;-71
2023/05/20 11:13:10;;;;;;;;;;;;;;;36.35;18.18;100674.78;5354976;32;35637;-68
2023/05/20 11:16:13;;;;;;;;;;;;;;;35.68;18.15;100658.97;5344525;32;34544;-70
2023/05/20 11:19:15;;;;;;;;;;;;;;;35.44;19.75;100661.41;5352027;32;35921;-69
2023/05/20 11:22:17;;;;;;;;;;;;;;;33.51;21.28;100653.28;5359221;32;47905;-70
2023/05/20 11:25:19;;;;;;;;;;;;;;;34.70;20.00;100661.72;5361035;32;35115;-69
2023/05/20 11:28:25;;;;;;;;;;;;;;;36.54;17.94;100664.78;5354174;32;35483;-70
2023/05/20 11:31:27;;;;;;;;;;;;;;;36.65;18.07;100662.34;5351715;32;34890;-70
2023/05/20 11:34:33;;;;;;;;;;;;;;;36.12;17.93;100658.09;5350444;32;34970;-71
2023/05/20 11:37:35;;;;;;;;;;;;;;;34.72;19.70;100654.19;5333195;32;34841;-72
2023/05/20 11:40:37;;;;;;;;;;;;;;;36.69;18.23;100650.72;5358578;32;34458;-71
2023/05/20 11:43:56;;;;;;;;;;;;;;;36.11;18.48;100661.91;5363253;32;46056;-69
2023/05/20 11:46:59;;;;;;;;;;;;;;;38.29;16.35;100652.38;5351302;32;34193;-69
2023/05/20 11:50:01;;;;;;;;;;;;;;;35.04;19.85;100651.59;5360227;32;34963;-69
2023/05/20 11:53:03;;;;;;;;;;;;;;;36.98;18.25;100646.47;5363735;32;36710;-70
2023/05/20 11:56:05;;;;;;;;;;;;;;;38.19;17.10;100637.31;5372722;32;34530;-69
2023/05/20 11:59:09;;;;;;;;;;;;;;;37.36;17.40;100643.53;5365622;32;34752;-69
2023/05/20 12:02:13;;;;;;;;;;;;;;;37.91;16.63;100635.22;5368386;32;35337;-71
2023/05/20 12:05:16;;;;;;;;;;;;;;;34.88;19.86;100634.59;5371649;32;44555;-69
2023/05/20 12:08:18;;;;;;;;;;;;;;;35.78;19.18;100640.19;5348244;32;35350;-71
2023/05/20 12:11:21;;;;;;;;;;;;;;;37.41;17.94;100629.12;5371168;32;35692;-71
2023/05/20 12:14:24;;;;;;;;;;;;;;;35.77;19.08;100630.34;5363678;32;36170;-68
2023/05/20 12:17:26;;;;;;;;;;;;;;;34.29;20.55;100631.91;5372144;32;35552;-70
2023/05/20 12:20:29;;;;;;;;;;;;;;;32.58;22.61;100639.06;5365306;32;34893;-72
2023/05/20 12:23:32;;;;;;;;;;;;;;;31.55;24.36;100651.97;5368132;32;35341;-71
2023/05/20 12:26:39;;;;;;;;;;;;;;;30.10;26.43;100638.84;5357769;32;35458;-70
2023/05/20 12:29:41;;;;;;;;;;;;;;;31.41;24.38;100631.13;5363368;32;34843;-68
2023/05/20 12:32:43;;;;;;;;;;;;;;;29.93;26.35;100624.53;5372336;32;35517;-70
2023/05/20 12:35:45;;;;;;;;;;;;;;;30.18;26.50;100631.50;5335846;32;44618;-70
2023/05/20 12:38:47;;;;;;;;;;;;;;;30.09;27.10;100627.13;5347963;32;35438;-72
2023/05/20 12:41:52;;;;;;;;;;;;;;;29.17;27.97;100633.37;5345835;32;34835;-71
2023/05/20 12:44:54;;;;;;;;;;;;;;;29.17;27.87;100622.53;5356800;32;35016;-69
2023/05/20 12:47:56;;;;;;;;;;;;;;;29.25;27.97;100622.53;5336043;32;34193;-70
2023/05/20 12:50:59;;;;;;;;;;;;;;;30.07;26.74;100622.91;5342367;32;34739;-70
2023/05/20 12:54:01;;;;;;;;;;;;;;;29.91;26.14;100626.59;5352641;32;35655;-70
2023/05/20 12:57:04;;;;;;;;;;;;;;;29.83;27.07;100615.81;5347223;32;34992;-72
2023/05/20 13:00:09;;;;;;;;;;;;;;;29.27;28.32;100618.62;5353446;32;34710;-68
2023/05/20 13:03:11;;;;;;;;;;;;;;;29.55;27.85;100615.47;5357837;32;35209;-68
2023/05/20 13:06:13;;;;;;;;;;;;;;;30.00;26.59;100611.09;5344945;32;35606;-68
2023/05/20 13:09:16;;;;;;;;;;;;;;;29.81;26.98;100612.41;5372470;32;36493;-68
2023/05/20 13:12:20;;;;;;;;;;;;;;;29.49;26.78;100603.44;5362926;32;36102;-70
2023/05/20 13:15:23;;;;;;;;;;;;;;;29.80;25.40;100616.16;5370091;32;34238;-70
2023/05/20 13:18:25;;;;;;;;;;;;;;;29.70;26.11;100602.87;5368155;32;35435;-69
2023/05/20 13:21:30;;;;;;;;;;;;;;;29.54;26.55;100597.53;5370257;32;34683;-69
2023/05/20 13:24:32;;;;;;;;;;;;;;;28.63;28.12;100592.56;5367390;32;35152;-68
2023/05/20 13:27:34;;;;;;;;;;;;;;;29.35;27.21;100583.38;5362238;32;34777;-70
2023/05/20 13:30:36;;;;;;;;;;;;;;;28.60;28.39;100581.09;5371007;32;35981;-69
2023/05/20 13:33:39;;;;;;;;;;;;;;;29.32;28.95;100586.47;5348395;32;34341;-69
2023/05/20 13:36:41;;;;;;;;;;;;;;;29.44;28.92;100578.78;5346465;32;35578;-72
2023/05/20 13:39:43;;;;;;;;;;;;;;;29.45;28.96;100585.87;5360919;32;35434;-70
2023/05/20 13:42:45;;;;;;;;;;;;;;;29.55;29.00;100572.97;5353690;32;34871;-69
2023/05/20 13:45:47;;;;;;;;;;;;;;;29.42;29.72;100580.81;5364995;32;45466;-70
2023/05/20 13:48:49;;;;;;;;;;;;;;;29.61;28.61;100574.97;5341460;32;35563;-70
2023/05/20 13:51:51;;;;;;;;;;;;;;;28.93;29.22;100575.63;5371397;32;34436;-69
2023/05/20 13:54:53;;;;;;;;;;;;;;;28.82;30.31;100567.84;5364565;32;35332;-69
2023/05/20 13:57:55;;;;;;;;;;;;;;;29.04;29.87;100566.28;5369858;32;34347;-71
2023/05/20 14:00:57;;;;;;;;;;;;;;;28.48;29.92;100560.84;5362556;32;34912;-70
2023/05/20 14:03:59;;;;;;;;;;;;;;;29.07;28.86;100561.38;5355654;32;35651;-70
2023/05/20 14:07:02;;;;;;;;;;;;;;;28.56;29.59;100558.13;5364705;32;34916;-69
2023/05/20 14:10:05;;;;;;;;;;;;;;;28.76;29.41;100558.56;5336510;32;911366;-69
2023/05/20 14:13:09;;;;;;;;;;;;;;;29.07;29.23;100553.25;5370278;32;34850;-70
2023/05/20 14:16:11;;;;;;;;;;;;;;;29.30;28.48;100557.84;5363035;32;35473;-71
2023/05/20 14:19:13;;;;;;;;;;;;;;;28.98;29.41;100561.56;5371283;32;34742;-68
2023/05/20 14:22:15;;;;;;;;;;;;;;;28.71;29.61;100558.22;5364137;32;35319;-71
2023/05/20 14:25:17;;;;;;;;;;;;;;;28.32;28.53;100548.19;5366387;32;47262;-68
2023/05/20 14:28:19;;;;;;;;;;;;;;;28.80;27.45;100548.25;5365921;32;35951;-69
2023/05/20 14:31:21;;;;;;;;;;;;;;;28.48;27.09;100550.03;5362106;32;35282;-68
2023/05/20 14:34:23;;;;;;;;;;;;;;;29.01;26.25;100532.31;5369242;32;35323;-68
2023/05/20 14:37:26;;;;;;;;;;;;;;;29.04;26.68;100542.75;5346027;32;35313;-69
2023/05/20 14:40:28;;;;;;;;;;;;;;;28.90;26.00;100535.34;5369229;32;34804;-68
2023/05/20 14:43:31;;;;;;;;;;;;;;;28.63;25.77;100541.19;5361370;32;34889;-70
2023/05/20 14:46:33;;;;;;;;;;;;;;;28.38;26.41;100549.34;5361870;32;34915;-70
2023/05/20 14:49:37;;;;;;;;;;;;;;;28.78;26.34;100528.63;5336050;32;38258;-67
2023/05/20 14:52:39;;;;;;;;;;;;;;;27.82;28.29;100536.69;5360091;32;35513;-68
2023/05/20 14:55:41;;;;;;;;;;;;;;;28.40;27.80;100530.25;5370534;32;34903;-71
2023/05/20 14:58:43;;;;;;;;;;;;;;;28.60;28.13;100521.63;5347181;32;34944;-69
2023/05/20 15:01:45;;;;;;;;;;;;;;;28.12;29.41;100537.88;5369595;32;45357;-72
2023/05/20 15:04:47;;;;;;;;;;;;;;;28.31;28.18;100532.16;5349549;32;34389;-68
2023/05/20 15:07:50;;;;;;;;;;;;;;;29.03;26.11;100532.13;5362344;32;34840;-71
2023/05/20 15:10:52;;;;;;;;;;;;;;;29.18;26.26;100535.78;5365092;32;34593;-67
2023/05/20 15:13:54;;;;;;;;;;;;;;;28.92;26.92;100525.25;5361009;32;35805;-68
2023/05/20 15:16:56;;;;;;;;;;;;;;;28.55;28.00;100528.56;5370042;32;35680;-70
2023/05/20 15:19:58;;;;;;;;;;;;;;;28.11;29.41;100531.63;5361190;32;34486;-71
2023/05/20 15:23:00;;;;;;;;;;;;;;;28.46;29.79;100524.16;5372845;32;34861;-70
2023/05/20 15:26:02;;;;;;;;;;;;;;;27.65;31.44;100516.91;5362486;32;35493;-67
2023/05/20 15:29:03;;;;;;;;;;;;;;;28.45;30.11;100507.09;5363295;32;35641;-69
2023/05/20 15:32:05;;;;;;;;;;;;;;;28.38;30.01;100516.94;5367169;32;34202;-67
2023/05/20 15:35:07;;;;;;;;;;;;;;;28.48;29.77;100503.22;5347706;32;34214;-68
2023/05/20 15:38:09;;;;;;;;;;;;;;;28.57;30.36;100494.06;5358646;32;35948;-69